Archerfield, United Kingdom

8:05 AM GMT on November 26, 2014 (GMT +0000)
IEASTLOT6 | Change Station
CLOSE
Current Station
Personal Weather Station
Location: Dirleton, EAST LOTHIAN
Elevation: 46 ft
Nearby Weather Stations

Elev 46 ft 56.05 °N, 2.80 °W | Updated 2 seconds ago

Overcast
Overcast
39.4 °F
Feels Like 39 °F
N
0.0
Wind Variable Wind from North
Gusts 0.0 mph

Today
High -- | Low -- °F
--% Chance of Precip.
Yesterday
High -- | Low -- °F
Precip. -- in
8:09 AM 3:47 PM
Waxing Crescent, 17% visible
Pressure 30.04 in
Visibility 6.2 miles
Clouds Overcast 6000 ft
Windchill 39 °F
Dew Point 38 °F
Humidity 96%
Rainfall 0.00 in
Snow Depth Not available.
UV 0 out of 12
Pollen Not available.
Air Quality Not available.
Flu Activity Not available.
METAR EGQL 260750Z 27003KT 9999 5000SW OVC060 02/02 Q1017 WHT

More Conditions Fewer Conditions

Pressure 30.04 in
Visibility 6.2 miles
Clouds Overcast 6000 ft
Windchill 39 °F
Dew Point 38 °F
Humidity 96%
Rainfall 0.00 in
Snow Depth Not available.
UV 0 out of 12
Pollen Not available.
Air Quality Not available.
Flu Activity Not available.
METAR EGQL 260750Z 27003KT 9999 5000SW OVC060 02/02 Q1017 WHT

More Conditions Fewer Conditions

10-Day Weather Forecast

Almanac

Astronomy

Nov. 26, 2014 Rise Set
Actual Time
Civil Twilight
Nautical Twilight
Astronomical Twilight
Moon
Length of Visible Light
Length of Day
Tomorrow will be .
, % of the Moon is Illuminated

Today's Extremes

Country Highs Country Lows

Community

WunderPhotos

Upload Photos

1,773,694 photos uploaded!

WunderBlogs® & News

Nearby

Air Quality

  Air Quality AQ Index Pollutant
Not available.

Snow Depth

Station Depth Elevation

Earthquake Activity

City Distance Mag. Time & Date
Minimum magnitude displayed is 2.5.

Coastal Water Temperatures

Place Temperature

Nearby Weather Stations